Time;durP1;ratioP1;P1;durP2;ratioP2;P2;SDS_P1;SDS_P2;PMS_P1;PMS_P2;Temp;Humidity;BMP_temperature;BMP_pressure;BME280_temperature;BME280_humidity;BME280_pressure;Samples;Min_cycle;Max_cycle;Signal;HPM_P1;HPM_P2
2023/05/02 00:01:23;;;;;;;21.92;15.35;;;11.60;99.90;;;;;;4878400;28;92599;-33
2023/05/02 00:03:48;;;;;;;18.10;13.50;;;11.60;99.90;;;;;;4878807;28;92972;-35
2023/05/02 00:06:14;;;;;;;22.85;12.82;;;11.40;99.90;;;;;;4877152;28;94748;-35
2023/05/02 00:08:40;;;;;;;14.63;10.77;;;11.40;99.90;;;;;;4878475;28;94721;-33
2023/05/02 00:11:05;;;;;;;18.58;11.75;;;11.40;99.90;;;;;;4877481;28;95879;-34
2023/05/02 00:13:31;;;;;;;15.35;11.00;;;11.40;99.90;;;;;;4878530;28;93294;-32
2023/05/02 00:15:57;;;;;;;13.73;10.57;;;11.40;99.90;;;;;;4878048;28;94733;-32
2023/05/02 00:18:23;;;;;;;17.65;11.70;;;11.40;99.90;;;;;;4871517;28;95126;-34
2023/05/02 00:20:49;;;;;;;19.55;9.60;;;11.30;99.90;;;;;;4872805;28;93391;-32
2023/05/02 00:23:15;;;;;;;16.83;10.88;;;11.40;99.90;;;;;;4877830;28;93325;-34
2023/05/02 00:25:46;;;;;;;19.20;10.95;;;11.30;99.90;;;;;;4876917;28;94971;-31
2023/05/02 00:28:15;;;;;;;15.88;10.38;;;11.20;99.90;;;;;;4878569;28;94606;-32
2023/05/02 00:30:45;;;;;;;22.58;10.23;;;11.10;99.90;;;;;;4878204;28;94227;-34
2023/05/02 00:33:12;;;;;;;23.70;11.00;;;11.20;99.90;;;;;;4878706;28;93289;-35
2023/05/02 00:35:38;;;;;;;13.13;9.00;;;11.10;99.90;;;;;;4876942;28;95665;-32
2023/05/02 00:38:03;;;;;;;13.63;9.32;;;11.10;99.90;;;;;;4878699;28;95844;-31
2023/05/02 00:40:29;;;;;;;13.75;9.18;;;11.10;99.90;;;;;;4879005;28;93493;-34
2023/05/02 00:42:55;;;;;;;15.18;7.78;;;11.00;99.90;;;;;;4878294;28;93305;-35
2023/05/02 00:45:21;;;;;;;10.95;8.38;;;11.10;99.90;;;;;;4878197;28;94439;-36
2023/05/02 00:47:48;;;;;;;13.38;9.05;;;11.00;99.90;;;;;;4878241;28;93934;-32
2023/05/02 00:50:13;;;;;;;9.93;7.40;;;11.00;99.90;;;;;;4878507;28;94561;-33
2023/05/02 00:52:40;;;;;;;8.90;5.85;;;11.00;99.90;;;;;;4879090;28;93294;-30
2023/05/02 00:55:06;;;;;;;9.10;5.60;;;10.90;99.90;;;;;;4878329;28;94465;-33
2023/05/02 00:57:33;;;;;;;10.90;6.05;;;10.90;99.90;;;;;;4878141;28;94258;-32
2023/05/02 00:59:58;;;;;;;8.73;5.07;;;10.90;99.90;;;;;;4876262;28;94071;-33
2023/05/02 01:02:41;;;;;;;6.85;5.00;;;10.90;99.90;;;;;;4878587;28;94653;-33
2023/05/02 01:05:26;;;;;;;5.28;3.95;;;10.90;99.90;;;;;;4877737;28;95067;-33
2023/05/02 01:08:18;;;;;;;6.63;3.45;;;10.80;99.90;;;;;;4875731;28;95737;-31
2023/05/02 01:11:13;;;;;;;5.10;3.28;;;10.70;99.90;;;;;;4879120;28;93033;-32
2023/05/02 01:13:41;;;;;;;3.17;2.55;;;10.70;99.90;;;;;;4872071;28;93539;-31
2023/05/02 01:16:10;;;;;;;5.72;3.35;;;10.70;99.90;;;;;;4880749;28;93631;-35
2023/05/02 01:18:39;;;;;;;4.80;3.05;;;10.60;99.90;;;;;;4872655;28;94136;-32
2023/05/02 01:21:09;;;;;;;4.97;3.10;;;10.60;99.90;;;;;;4864879;28;94655;-30
2023/05/02 01:23:54;;;;;;;5.95;2.97;;;10.50;99.90;;;;;;4881478;28;92406;-33
2023/05/02 01:26:34;;;;;;;5.57;3.35;;;10.60;99.90;;;;;;4880997;28;96435;-32
2023/05/02 01:29:02;;;;;;;5.88;3.92;;;10.50;99.90;;;;;;4881306;28;95132;-32
2023/05/02 01:31:35;;;;;;;7.75;4.35;;;10.40;99.90;;;;;;4881758;28;94743;-35
2023/05/02 01:34:03;;;;;;;5.35;4.18;;;10.30;99.90;;;;;;4880838;28;92879;-33
2023/05/02 01:36:31;;;;;;;4.70;3.55;;;10.30;99.90;;;;;;4881080;28;95062;-30
2023/05/02 01:38:59;;;;;;;4.20;3.38;;;10.30;99.90;;;;;;4881779;28;94204;-32
2023/05/02 01:41:27;;;;;;;8.30;3.42;;;10.30;99.90;;;;;;4882187;28;94455;-30
2023/05/02 01:43:57;;;;;;;8.73;3.28;;;10.30;99.90;;;;;;4881603;28;92752;-30
2023/05/02 01:46:25;;;;;;;6.38;4.05;;;10.30;99.90;;;;;;4880738;28;96194;-30
2023/05/02 01:48:51;;;;;;;;;;;10.20;99.90;;;;;;4881604;28;96117;-34
2023/05/02 01:51:19;;;;;;;8.90;3.38;;;10.20;99.90;;;;;;4881990;28;93801;-32
2023/05/02 01:53:48;;;;;;;6.73;4.33;;;10.20;99.90;;;;;;4881661;28;92217;-32
2023/05/02 01:56:17;;;;;;;7.07;4.47;;;10.20;99.90;;;;;;4880902;28;94931;-33
2023/05/02 01:58:44;;;;;;;5.20;3.63;;;10.20;99.90;;;;;;4880887;28;94621;-31
2023/05/02 02:01:10;;;;;;;7.97;4.15;;;10.20;99.90;;;;;;4880716;28;94450;-34
2023/05/02 02:03:36;;;;;;;8.57;4.13;;;10.20;99.90;;;;;;4881485;28;94431;-31
2023/05/02 02:06:02;;;;;;;4.18;3.75;;;10.20;99.90;;;;;;4880781;28;94818;-29
2023/05/02 02:08:28;;;;;;;7.07;4.78;;;10.20;99.90;;;;;;4880714;28;94534;-34
2023/05/02 02:11:02;;;;;;;5.70;3.50;;;10.20;99.90;;;;;;4881380;28;93613;-32
2023/05/02 02:13:37;;;;;;;6.45;3.28;;;10.20;99.90;;;;;;4880885;28;93678;-30
2023/05/02 02:16:06;;;;;;;6.28;3.58;;;10.20;99.90;;;;;;4880074;28;95604;-33
2023/05/02 02:18:36;;;;;;;4.00;3.58;;;10.10;99.90;;;;;;4880947;28;95258;-31
2023/05/02 02:21:05;;;;;;;5.15;4.38;;;10.10;99.90;;;;;;4881000;28;92221;-31
2023/05/02 02:23:33;;;;;;;4.70;3.75;;;10.10;99.90;;;;;;4880557;28;93171;-32
2023/05/02 02:26:00;;;;;;;6.82;4.15;;;10.10;99.90;;;;;;4880192;28;95437;-34
2023/05/02 02:28:25;;;;;;;5.22;4.03;;;10.20;99.90;;;;;;4880219;28;94767;-30
2023/05/02 02:30:51;;;;;;;7.85;3.50;;;10.10;99.90;;;;;;4880764;28;94522;-34
2023/05/02 02:33:18;;;;;;;6.75;3.28;;;10.20;99.90;;;;;;4880166;28;93742;-31
2023/05/02 02:35:52;;;;;;;7.25;4.25;;;10.20;99.90;;;;;;4880095;28;93745;-32
2023/05/02 02:38:37;;;;;;;6.47;4.15;;;10.10;99.90;;;;;;4880808;28;95125;-35
2023/05/02 02:41:18;;;;;;;6.28;5.07;;;10.00;99.90;;;;;;4867686;28;93169;-33
2023/05/02 02:44:03;;;;;;;6.03;4.03;;;10.00;99.90;;;;;;4880362;28;94150;-33
2023/05/02 02:46:50;;;;;;;6.65;4.45;;;10.00;99.90;;;;;;4880133;28;94246;-31
2023/05/02 02:49:39;;;;;;;13.32;4.70;;;9.80;99.90;;;;;;4869122;28;94524;-32
2023/05/02 02:52:23;;;;;;;9.50;4.63;;;9.70;99.90;;;;;;4880018;28;92190;-31
2023/05/02 02:54:56;;;;;;;4.88;3.75;;;9.50;99.90;;;;;;4880151;28;92610;-31
2023/05/02 02:58:00;;;;;;;5.93;3.58;;;9.50;99.90;;;;;;4879692;28;94880;-35
2023/05/02 03:00:27;;;;;;;10.90;3.80;;;9.30;99.90;;;;;;4876924;28;95478;-32
2023/05/02 03:02:54;;;;;;;16.77;4.50;;;9.20;99.90;;;;;;4877946;28;94183;-32
2023/05/02 03:05:21;;;;;;;10.68;3.55;;;9.20;99.90;;;;;;4866984;28;92977;-32
2023/05/02 03:07:47;;;;;;;10.95;4.38;;;9.20;99.90;;;;;;4879737;28;96069;-35
2023/05/02 03:10:12;;;;;;;14.88;5.10;;;9.20;99.90;;;;;;4879888;28;95280;-31
2023/05/02 03:12:42;;;;;;;5.50;3.97;;;9.00;99.90;;;;;;4880363;28;92211;-30
2023/05/02 03:15:14;;;;;;;10.43;4.40;;;8.90;99.90;;;;;;4868673;28;93382;-29
2023/05/02 03:17:40;;;;;;;7.78;4.25;;;8.90;99.90;;;;;;4878460;28;94579;-32
2023/05/02 03:20:06;;;;;;;7.93;5.15;;;8.80;99.90;;;;;;4867477;28;94543;-32
2023/05/02 03:22:32;;;;;;;10.30;4.80;;;8.80;99.90;;;;;;4879952;28;94145;-33
2023/05/02 03:24:57;;;;;;;9.98;5.90;;;8.80;99.90;;;;;;4879702;28;93044;-34
2023/05/02 03:27:23;;;;;;;9.02;5.05;;;8.70;99.90;;;;;;4880074;28;95010;-33
2023/05/02 03:29:48;;;;;;;9.82;3.90;;;8.70;99.90;;;;;;4879407;28;93261;-29
2023/05/02 03:32:14;;;;;;;19.85;6.00;;;8.70;99.90;;;;;;4879522;28;96202;-31
2023/05/02 03:34:40;;;;;;;8.02;4.53;;;8.70;99.90;;;;;;4878342;28;93257;-35
2023/05/02 03:37:06;;;;;;;10.15;4.32;;;8.80;99.90;;;;;;4879408;28;94337;-35
2023/05/02 03:39:31;;;;;;;17.63;6.05;;;8.70;99.90;;;;;;4880091;28;94503;-29
2023/05/02 03:41:57;;;;;;;13.05;5.43;;;8.50;99.90;;;;;;4879147;28;92169;-32
2023/05/02 03:44:23;;;;;;;11.43;4.13;;;8.50;99.90;;;;;;4879321;28;92675;-33
2023/05/02 03:46:48;;;;;;;17.60;5.47;;;8.40;99.90;;;;;;4878748;28;95317;-32
2023/05/02 03:49:14;;;;;;;12.02;4.63;;;8.30;99.90;;;;;;4880264;28;95396;-32
2023/05/02 03:51:39;;;;;;;14.45;5.25;;;8.40;99.90;;;;;;4879784;28;93295;-31
2023/05/02 03:54:06;;;;;;;10.20;5.47;;;8.20;99.90;;;;;;4879715;28;93416;-34
2023/05/02 03:56:31;;;;;;;15.80;4.93;;;8.10;99.90;;;;;;4879021;28;95108;-31
2023/05/02 03:58:57;;;;;;;9.88;4.43;;;8.20;99.90;;;;;;4879330;28;95416;-32
2023/05/02 04:01:23;;;;;;;6.90;4.22;;;8.20;99.90;;;;;;4879969;28;94229;-34
2023/05/02 04:03:50;;;;;;;10.95;6.40;;;8.20;99.90;;;;;;4879272;28;92147;-34
2023/05/02 04:06:15;;;;;;;13.68;6.28;;;8.10;99.90;;;;;;4912006;23;94411;-33
2023/05/02 04:08:41;;;;;;;14.73;5.10;;;8.10;99.90;;;;;;4899139;28;94944;-31
2023/05/02 04:11:08;;;;;;;7.50;4.28;;;8.10;99.90;;;;;;4899273;28;92882;-33
2023/05/02 04:13:33;;;;;;;10.52;5.53;;;8.10;99.90;;;;;;4898506;28;93345;-36
2023/05/02 04:15:59;;;;;;;10.45;6.07;;;8.00;99.90;;;;;;4897984;28;94728;-32
2023/05/02 04:18:25;;;;;;;15.18;5.53;;;8.00;99.90;;;;;;4890772;28;94150;-33
2023/05/02 04:20:51;;;;;;;17.42;4.43;;;7.90;99.90;;;;;;4893158;28;94181;-30
2023/05/02 04:23:16;;;;;;;13.45;3.90;;;7.80;99.90;;;;;;4896193;28;94292;-34
2023/05/02 04:25:55;;;;;;;17.98;5.35;;;8.00;99.90;;;;;;4897165;28;96411;-31
2023/05/02 04:28:21;;;;;;;10.32;5.05;;;7.80;99.90;;;;;;4898013;28;94228;-31
2023/05/02 04:30:50;;;;;;;12.45;5.75;;;7.90;99.90;;;;;;4898181;28;93112;-33
2023/05/02 04:33:17;;;;;;;5.57;3.78;;;7.90;99.90;;;;;;4898224;28;92265;-32
2023/05/02 04:35:43;;;;;;;9.05;3.92;;;7.90;99.90;;;;;;4897364;28;94586;-32
2023/05/02 04:38:09;;;;;;;13.85;4.03;;;7.80;99.90;;;;;;4898436;28;94828;-30
2023/05/02 04:40:34;;;;;;;10.25;4.30;;;7.80;99.90;;;;;;4898130;28;92526;-32
2023/05/02 04:43:00;;;;;;;24.70;4.53;;;7.80;99.90;;;;;;4898568;28;94325;-32
2023/05/02 04:45:26;;;;;;;12.88;3.55;;;7.70;99.90;;;;;;4896848;28;95215;-35
2023/05/02 04:47:51;;;;;;;15.75;5.43;;;7.70;99.90;;;;;;4901109;28;94817;-35
2023/05/02 04:50:17;;;;;;;14.73;5.10;;;7.60;99.90;;;;;;4901745;28;94308;-29
2023/05/02 04:52:43;;;;;;;8.32;3.53;;;7.70;99.90;;;;;;4901417;28;94213;-31
2023/05/02 04:55:08;;;;;;;10.15;3.55;;;7.70;99.90;;;;;;4901243;28;94916;-30
2023/05/02 04:57:34;;;;;;;14.43;3.88;;;7.70;99.90;;;;;;4900765;28;94652;-32
2023/05/02 05:00:00;;;;;;;6.43;3.72;;;7.70;99.90;;;;;;4900888;28;94118;-35
2023/05/02 05:02:25;;;;;;;14.13;3.25;;;7.70;99.90;;;;;;4902586;28;93805;-33
2023/05/02 05:04:51;;;;;;;4.20;2.83;;;7.60;99.90;;;;;;4897252;28;94129;-34
2023/05/02 05:07:17;;;;;;;13.65;4.72;;;7.60;99.90;;;;;;4886580;28;94503;-34
2023/05/02 05:09:42;;;;;;;7.43;3.95;;;7.60;99.90;;;;;;4897982;28;95385;-31
2023/05/02 05:12:08;;;;;;;13.63;3.92;;;7.60;99.90;;;;;;4900195;28;92715;-34
2023/05/02 05:14:33;;;;;;;4.60;3.58;;;7.60;99.90;;;;;;4900497;28;94705;-35
2023/05/02 05:16:59;;;;;;;7.35;3.05;;;7.70;99.90;;;;;;4893961;28;94614;-34
2023/05/02 05:19:25;;;;;;;5.82;3.15;;;7.70;99.90;;;;;;4888051;28;93629;-31
2023/05/02 05:21:51;;;;;;;14.98;3.28;;;7.70;99.90;;;;;;4900472;28;92815;-31
2023/05/02 05:24:17;;;;;;;3.95;2.53;;;7.70;99.90;;;;;;4900302;28;94598;-30
2023/05/02 05:26:42;;;;;;;21.52;4.40;;;7.70;99.90;;;;;;4900912;28;94224;-33
2023/05/02 05:29:08;;;;;;;10.80;2.80;;;7.70;99.90;;;;;;4900613;28;92168;-29
2023/05/02 05:31:33;;;;;;;8.60;2.92;;;7.70;99.90;;;;;;4901173;28;94548;-32
2023/05/02 05:34:01;;;;;;;4.22;2.33;;;7.80;99.90;;;;;;4899711;28;95914;-29
2023/05/02 05:36:26;;;;;;;5.93;2.67;;;7.70;99.90;;;;;;4900182;28;94345;-32
2023/05/02 05:38:52;;;;;;;3.25;2.40;;;7.70;99.90;;;;;;4900383;28;94774;-33
2023/05/02 05:41:18;;;;;;;6.72;2.58;;;7.80;99.90;;;;;;4899879;28;92121;-34
2023/05/02 05:43:43;;;;;;;5.82;2.83;;;7.70;99.90;;;;;;4900503;28;96371;-34
2023/05/02 05:46:09;;;;;;;3.88;2.53;;;7.70;99.90;;;;;;4899945;28;94298;-31
2023/05/02 05:48:35;;;;;;;4.28;2.53;;;7.80;99.90;;;;;;4900401;28;93319;-34
2023/05/02 05:51:04;;;;;;;8.27;2.15;;;7.80;99.90;;;;;;4900463;28;93053;-35
2023/05/02 05:53:30;;;;;;;3.20;2.65;;;7.80;99.90;;;;;;4896989;28;93913;-34
2023/05/02 05:55:56;;;;;;;3.75;3.33;;;7.90;99.90;;;;;;4898229;28;94357;-34
2023/05/02 05:58:22;;;;;;;3.40;2.67;;;8.00;99.90;;;;;;4887829;28;94672;-36
2023/05/02 06:00:49;;;;;;;5.55;3.92;;;8.00;99.90;;;;;;4897571;28;94274;-36
2023/05/02 06:03:15;;;;;;;8.18;3.05;;;8.10;99.90;;;;;;4897458;28;94790;-36
2023/05/02 06:05:41;;;;;;;8.43;2.95;;;8.20;99.90;;;;;;4897488;28;93815;-34
2023/05/02 06:08:07;;;;;;;6.60;2.88;;;8.40;99.90;;;;;;4897535;28;92141;-37
2023/05/02 06:10:32;;;;;;;6.63;3.95;;;8.50;99.90;;;;;;4898427;28;94800;-32
2023/05/02 06:12:58;;;;;;;7.82;3.58;;;8.60;99.90;;;;;;4897612;28;94497;-32
2023/05/02 06:15:24;;;;;;;8.93;3.17;;;8.60;99.90;;;;;;4897921;28;93475;-32
2023/05/02 06:17:50;;;;;;;4.85;2.92;;;8.60;99.90;;;;;;4897475;28;94173;-31
2023/05/02 06:20:16;;;;;;;4.15;2.88;;;8.50;99.90;;;;;;4888782;28;94738;-34
2023/05/02 06:22:42;;;;;;;9.82;3.65;;;8.40;99.90;;;;;;4896869;28;94791;-35
2023/05/02 06:25:08;;;;;;;10.75;4.03;;;8.40;99.90;;;;;;4897288;28;95792;-33
2023/05/02 06:27:34;;;;;;;10.20;3.83;;;8.30;99.90;;;;;;4897981;28;94324;-35
2023/05/02 06:29:59;;;;;;;8.68;3.47;;;8.30;99.90;;;;;;4899021;28;92236;-34
2023/05/02 06:32:30;;;;;;;14.10;4.38;;;8.30;99.90;;;;;;4897334;28;94297;-34
2023/05/02 06:34:55;;;;;;;8.13;3.70;;;8.30;99.90;;;;;;4897621;28;94089;-33
2023/05/02 06:37:21;;;;;;;6.70;4.40;;;8.20;99.90;;;;;;4898003;28;94508;-34
2023/05/02 06:39:47;;;;;;;5.72;3.30;;;8.20;99.90;;;;;;4897473;28;92723;-33
2023/05/02 06:42:12;;;;;;;14.02;4.75;;;8.30;99.90;;;;;;4897171;28;95057;-34
2023/05/02 06:44:38;;;;;;;7.28;3.45;;;8.30;99.90;;;;;;4896750;28;94238;-35
2023/05/02 06:47:05;;;;;;;8.18;4.03;;;8.30;99.90;;;;;;4897025;28;95477;-37
2023/05/02 06:49:31;;;;;;;5.88;3.05;;;8.10;99.90;;;;;;4897373;28;92543;-35
2023/05/02 06:51:56;;;;;;;6.55;3.95;;;8.20;99.90;;;;;;4896901;28;94713;-34
2023/05/02 06:54:22;;;;;;;7.25;3.50;;;8.10;99.90;;;;;;4897173;28;94309;-36
2023/05/02 06:56:47;;;;;;;3.97;2.97;;;8.20;99.90;;;;;;4898719;28;94437;-35
2023/05/02 06:59:15;;;;;;;10.13;4.38;;;8.20;99.90;;;;;;4902871;28;93164;-34
2023/05/02 07:01:42;;;;;;;17.27;4.27;;;8.30;99.90;;;;;;4897116;28;95705;-33
2023/05/02 07:04:07;;;;;;;8.40;3.97;;;8.30;99.90;;;;;;4897334;28;94376;-33
2023/05/02 07:06:33;;;;;;;15.75;3.58;;;8.30;99.90;;;;;;4896398;28;93083;-35
2023/05/02 07:08:59;;;;;;;13.13;3.85;;;8.30;99.90;;;;;;4896365;28;94590;-32
2023/05/02 07:11:25;;;;;;;8.38;3.88;;;8.40;99.90;;;;;;4896731;28;95651;-33
2023/05/02 07:13:50;;;;;;;10.95;4.43;;;8.40;99.90;;;;;;4896703;28;94335;-32
2023/05/02 07:16:16;;;;;;;14.38;3.65;;;8.50;99.90;;;;;;4897941;28;94028;-34
2023/05/02 07:18:44;;;;;;;8.73;3.67;;;8.50;99.90;;;;;;4893571;28;94411;-36
2023/05/02 07:21:10;;;;;;;6.72;3.22;;;8.60;99.90;;;;;;4893340;28;94380;-36
2023/05/02 07:23:36;;;;;;;5.97;3.35;;;8.80;99.90;;;;;;4896146;28;94772;-33
2023/05/02 07:26:02;;;;;;;7.00;2.75;;;8.70;99.90;;;;;;4901161;28;93317;-33
2023/05/02 07:28:27;;;;;;;4.70;3.10;;;8.80;99.90;;;;;;4896611;28;92331;-34
2023/05/02 07:30:53;;;;;;;5.93;4.25;;;8.80;99.90;;;;;;4896324;28;95185;-32
2023/05/02 07:33:18;;;;;;;4.55;2.67;;;8.80;99.90;;;;;;4896672;28;94943;-34
2023/05/02 07:35:44;;;;;;;4.45;2.92;;;8.90;99.90;;;;;;4896091;28;93948;-33
2023/05/02 07:38:10;;;;;;;5.50;3.25;;;8.80;99.90;;;;;;4896689;28;93311;-35
2023/05/02 07:40:35;;;;;;;8.15;4.05;;;8.70;99.90;;;;;;4896324;28;94391;-31
2023/05/02 07:43:01;;;;;;;9.75;4.50;;;8.70;99.90;;;;;;4896073;28;94561;-32
2023/05/02 07:45:27;;;;;;;8.07;3.05;;;8.80;99.90;;;;;;4896747;28;93007;-32
2023/05/02 07:47:52;;;;;;;4.05;3.13;;;8.80;99.90;;;;;;4896553;28;94218;-33
2023/05/02 07:50:18;;;;;;;4.22;2.92;;;8.90;99.90;;;;;;4895874;28;94652;-32
2023/05/02 07:52:44;;;;;;;6.78;4.40;;;8.90;99.90;;;;;;4896115;28;94588;-32
2023/05/02 07:55:09;;;;;;;7.10;2.92;;;9.00;99.90;;;;;;4896801;28;92958;-36
2023/05/02 07:57:35;;;;;;;10.20;4.07;;;9.10;99.90;;;;;;4896052;28;93968;-34
2023/05/02 08:00:00;;;;;;;15.20;3.83;;;9.30;99.90;;;;;;4895417;28;94682;-36
2023/05/02 08:02:27;;;;;;;5.70;3.30;;;9.40;99.90;;;;;;4896125;28;95643;-32
2023/05/02 08:04:53;;;;;;;5.95;3.58;;;9.50;99.90;;;;;;4910669;28;93409;-33
2023/05/02 08:07:18;;;;;;;9.23;3.95;;;9.60;99.90;;;;;;4896030;28;94612;-34
2023/05/02 08:09:44;;;;;;;4.35;3.80;;;9.70;96.50;;;;;;4896371;28;95192;-35
2023/05/02 08:12:09;;;;;;;11.55;3.13;;;9.50;90.90;;;;;;4895662;28;94576;-33
2023/05/02 08:14:35;;;;;;;3.63;3.13;;;9.60;89.10;;;;;;4896766;28;93185;-33
2023/05/02 08:17:01;;;;;;;4.82;2.97;;;9.70;97.00;;;;;;4896452;28;93353;-35
2023/05/02 08:19:27;;;;;;;5.82;4.30;;;9.70;97.20;;;;;;4883366;28;94717;-33
2023/05/02 08:21:53;;;;;;;7.07;3.63;;;9.60;95.00;;;;;;4899146;28;95056;-31
2023/05/02 08:24:19;;;;;;;3.33;3.00;;;9.70;85.60;;;;;;4899025;28;93243;-36
2023/05/02 08:26:44;;;;;;;5.85;2.53;;;9.60;81.90;;;;;;4899513;28;94776;-32
2023/05/02 08:29:10;;;;;;;4.15;2.95;;;9.90;84.80;;;;;;4898980;28;93081;-30
2023/05/02 08:31:37;;;;;;;9.40;3.95;;;10.10;80.30;;;;;;4897845;28;94074;-35
2023/05/02 08:34:02;;;;;;;7.47;2.85;;;10.50;85.40;;;;;;4899695;28;92803;-35
2023/05/02 08:36:28;;;;;;;3.35;2.55;;;10.70;85.90;;;;;;4899198;28;92912;-33
2023/05/02 08:38:53;;;;;;;5.68;2.88;;;10.80;81.40;;;;;;4899986;28;95625;-32
2023/05/02 08:41:19;;;;;;;5.75;3.33;;;10.60;79.50;;;;;;4899184;28;93940;-32
2023/05/02 08:43:45;;;;;;;3.00;2.75;;;10.60;81.10;;;;;;4899692;28;92705;-35
2023/05/02 08:46:13;;;;;;;5.85;2.88;;;10.60;77.40;;;;;;4898721;28;94266;-33
2023/05/02 08:48:41;;;;;;;5.23;3.63;;;10.50;76.70;;;;;;4898177;28;95935;-35
2023/05/02 08:51:17;;;;;;;3.43;3.10;;;10.30;76.40;;;;;;4898687;28;94907;-35
2023/05/02 08:53:43;;;;;;;13.73;4.00;;;10.40;81.60;;;;;;4900138;28;94557;-33
2023/05/02 08:56:11;;;;;;;25.38;4.53;;;10.20;79.20;;;;;;4898617;28;94283;-31
2023/05/02 08:58:38;;;;;;;5.20;3.90;;;10.20;84.80;;;;;;4899122;28;94455;-34
2023/05/02 09:01:18;;;;;;;11.98;5.15;;;10.20;82.60;;;;;;4898702;28;94539;-34
2023/05/02 09:03:45;;;;;;;6.57;3.72;;;10.20;94.10;;;;;;4894318;28;93653;-36
2023/05/02 09:06:14;;;;;;;5.07;3.28;;;10.10;85.20;;;;;;4898562;28;93933;-33
2023/05/02 09:08:40;;;;;;;12.35;3.63;;;10.10;90.90;;;;;;4898887;28;95950;-33
2023/05/02 09:11:08;;;;;;;3.53;2.55;;;10.10;95.30;;;;;;4897001;28;94535;-35
2023/05/02 09:13:36;;;;;;;7.78;4.18;;;10.00;97.20;;;;;;4898261;28;94585;-34
2023/05/02 09:16:03;;;;;;;12.73;4.05;;;10.00;86.60;;;;;;4899230;28;94835;-33
2023/05/02 09:18:32;;;;;;;12.93;3.38;;;9.90;96.50;;;;;;4896733;28;94383;-31
2023/05/02 09:20:58;;;;;;;;;;;10.00;90.30;;;;;;4899634;28;94401;-33
2023/05/02 09:23:36;;;;;;;10.35;4.45;;;9.90;92.70;;;;;;4899531;28;92624;-34
2023/05/02 09:26:13;;;;;;;11.82;4.47;;;9.70;99.90;;;;;;4898086;28;93358;-33
2023/05/02 09:28:47;;;;;;;16.07;3.90;;;10.00;99.90;;;;;;4898719;28;94792;-33
2023/05/02 09:31:15;;;;;;;6.38;3.88;;;10.10;85.60;;;;;;4897631;28;94277;-35
2023/05/02 09:33:42;;;;;;;3.22;2.92;;;10.10;94.80;;;;;;4898385;28;93167;-35
2023/05/02 09:36:13;;;;;;;15.73;3.70;;;9.80;81.70;;;;;;4898261;28;94801;-30
2023/05/02 09:38:39;;;;;;;8.10;4.03;;;9.90;82.20;;;;;;4897883;28;95944;-34
2023/05/02 09:41:05;;;;;;;8.48;3.25;;;9.90;88.10;;;;;;4898300;28;95320;-32
2023/05/02 09:43:32;;;;;;;3.40;2.28;;;9.90;99.90;;;;;;4897802;28;93525;-33
2023/05/02 09:46:08;;;;;;;7.22;2.55;;;9.90;91.90;;;;;;4898768;28;94800;-32
2023/05/02 09:48:54;;;;;;;4.82;2.97;;;10.10;99.90;;;;;;4897992;28;95145;-31
2023/05/02 09:51:21;;;;;;;4.15;2.13;;;10.30;99.90;;;;;;4889518;28;95897;-35
2023/05/02 09:53:48;;;;;;;2.13;1.92;;;10.20;96.20;;;;;;4897887;28;94132;-33
2023/05/02 09:56:14;;;;;;;2.88;2.30;;;10.40;97.20;;;;;;4898546;28;91537;-34
2023/05/02 09:58:39;;;;;;;5.13;2.28;;;10.40;94.50;;;;;;4897389;28;93354;-34
2023/05/02 10:01:05;;;;;;;4.53;1.77;;;10.40;85.80;;;;;;4896356;28;94814;-33
2023/05/02 10:03:35;;;;;;;4.28;1.92;;;10.20;81.00;;;;;;4897737;28;94693;-35
2023/05/02 10:06:02;;;;;;;3.08;1.85;;;10.30;82.60;;;;;;4897585;28;94472;-32
2023/05/02 10:08:27;;;;;;;3.72;2.03;;;10.40;90.50;;;;;;4895100;28;95655;-32
2023/05/02 10:10:56;;;;;;;2.92;2.22;;;10.50;91.80;;;;;;4899767;28;95156;-32
2023/05/02 10:13:30;;;;;;;4.03;1.80;;;10.50;79.80;;;;;;4898063;28;92799;-34
2023/05/02 10:16:01;;;;;;;4.22;2.25;;;10.60;80.60;;;;;;4897288;28;92638;-34
2023/05/02 10:18:32;;;;;;;2.38;1.77;;;10.80;75.20;;;;;;4888878;28;94293;-35
2023/05/02 10:21:06;;;;;;;2.78;1.98;;;10.90;77.70;;;;;;4892905;28;95170;-34
2023/05/02 10:23:33;;;;;;;3.53;1.30;;;11.00;75.90;;;;;;4897861;28;92970;-37
2023/05/02 10:25:59;;;;;;;3.03;1.70;;;10.90;77.60;;;;;;4897753;28;93682;-35
2023/05/02 10:28:26;;;;;;;5.20;2.10;;;10.80;76.00;;;;;;4895059;28;96208;-33
2023/05/02 10:30:52;;;;;;;3.65;1.98;;;11.10;79.20;;;;;;4897331;28;95880;-36
2023/05/02 10:33:20;;;;;;;1.55;1.30;;;11.10;72.50;;;;;;4897606;28;93885;-36
2023/05/02 10:35:46;;;;;;;6.63;2.60;;;11.40;77.00;;;;;;4897321;28;94489;-34
2023/05/02 10:38:18;;;;;;;3.15;2.25;;;11.60;78.10;;;;;;4896303;28;94710;-35
2023/05/02 10:40:55;;;;;;;6.80;2.05;;;11.70;73.70;;;;;;4896844;28;95625;-31
2023/05/02 10:43:23;;;;;;;1.60;1.50;;;11.60;74.10;;;;;;4895204;28;94409;-32
2023/05/02 10:45:49;;;;;;;;;;;11.60;74.70;;;;;;4898221;28;92198;-33
2023/05/02 10:48:25;;;;;;;4.30;1.67;;;11.50;77.60;;;;;;4897992;28;94731;-35
2023/05/02 10:50:55;;;;;;;2.80;1.88;;;11.50;76.50;;;;;;4885295;28;94457;-32
2023/05/02 10:53:28;;;;;;;3.45;2.10;;;11.50;78.40;;;;;;4896317;28;94370;-32
2023/05/02 10:56:20;;;;;;;2.55;1.98;;;11.50;76.70;;;;;;4897473;28;92503;-33
2023/05/02 10:58:50;;;;;;;3.28;2.13;;;11.50;77.70;;;;;;4896466;28;95259;-36
2023/05/02 11:01:28;;;;;;;1.73;1.63;;;11.70;76.50;;;;;;4896473;28;94667;-33
2023/05/02 11:04:04;;;;;;;5.07;1.67;;;11.80;73.90;;;;;;4897323;28;93826;-32
2023/05/02 11:06:35;;;;;;;3.85;2.63;;;11.80;77.30;;;;;;4896219;28;93418;-34
2023/05/02 11:09:13;;;;;;;4.47;2.38;;;11.80;74.60;;;;;;4896755;28;93058;-35
2023/05/02 11:11:40;;;;;;;2.45;1.65;;;11.80;72.50;;;;;;4897278;28;94408;-33
2023/05/02 11:14:06;;;;;;;2.33;1.63;;;11.70;77.70;;;;;;4895660;28;93907;-32
2023/05/02 11:16:59;;;;;;;3.15;2.40;;;11.70;81.00;;;;;;4895878;28;94222;-36
2023/05/02 11:19:29;;;;;;;2.45;2.22;;;11.60;77.60;;;;;;4883319;28;95894;-35
2023/05/02 11:22:17;;;;;;;2.63;1.58;;;11.70;79.20;;;;;;4895658;28;95354;-35
2023/05/02 11:24:46;;;;;;;6.28;2.25;;;11.60;83.90;;;;;;4897180;28;94694;-33
2023/05/02 11:27:30;;;;;;;3.78;1.83;;;11.70;77.20;;;;;;4896432;28;93319;-33
2023/05/02 11:29:57;;;;;;;1.77;1.67;;;11.60;77.80;;;;;;4896009;28;94559;-33
2023/05/02 11:32:25;;;;;;;4.32;1.60;;;11.60;74.10;;;;;;4895587;28;95272;-36
2023/05/02 11:34:51;;;;;;;3.90;1.50;;;11.70;79.10;;;;;;4897059;28;94728;-33
2023/05/02 11:37:18;;;;;;;6.65;2.28;;;11.90;82.30;;;;;;4896399;28;91731;-36
2023/05/02 11:39:47;;;;;;;2.55;1.95;;;11.70;77.20;;;;;;4896308;28;94891;-33
2023/05/02 11:42:29;;;;;;;2.22;1.63;;;11.60;75.60;;;;;;4895902;28;94450;-35
2023/05/02 11:44:59;;;;;;;4.30;1.67;;;11.50;80.80;;;;;;4894862;28;94056;-34
2023/05/02 11:47:29;;;;;;;3.17;1.85;;;11.50;81.40;;;;;;4896032;28;93034;-31
2023/05/02 11:49:55;;;;;;;2.67;1.52;;;11.20;80.80;;;;;;4895386;28;95909;-35
2023/05/02 11:52:22;;;;;;;6.63;2.58;;;11.10;81.50;;;;;;4883801;28;93449;-36
2023/05/02 11:54:52;;;;;;;4.43;1.83;;;11.20;81.10;;;;;;4896294;28;93822;-35
2023/05/02 11:57:18;;;;;;;2.28;1.15;;;11.20;85.70;;;;;;4895883;28;92944;-31
2023/05/02 11:59:54;;;;;;;1.65;1.42;;;11.20;79.90;;;;;;4895390;28;95483;-34
2023/05/02 12:02:34;;;;;;;3.30;2.13;;;11.00;84.30;;;;;;4895878;28;94498;-35
2023/05/02 12:05:00;;;;;;;2.90;1.92;;;11.00;78.00;;;;;;4896517;28;94517;-36
2023/05/02 12:07:40;;;;;;;2.63;1.33;;;11.20;79.00;;;;;;4895723;28;94348;-34
2023/05/02 12:10:10;;;;;;;2.45;1.77;;;11.30;77.40;;;;;;4895421;28;97228;-33
2023/05/02 12:12:37;;;;;;;3.22;1.83;;;11.30;82.30;;;;;;4896679;28;96276;-34
2023/05/02 12:15:08;;;;;;;2.13;1.77;;;11.30;83.40;;;;;;4896482;28;92130;-35
2023/05/02 12:17:37;;;;;;;13.15;2.33;;;11.40;83.30;;;;;;4895419;28;93181;-35
2023/05/02 12:20:05;;;;;;;8.25;2.47;;;11.40;80.10;;;;;;4884400;28;95198;-34
2023/05/02 12:22:31;;;;;;;3.20;2.20;;;11.50;80.20;;;;;;4895735;28;94541;-35
2023/05/02 12:24:57;;;;;;;7.68;2.00;;;11.50;86.50;;;;;;4896392;28;93047;-35
2023/05/02 12:27:23;;;;;;;4.90;1.98;;;11.70;85.00;;;;;;4895956;28;93160;-35
2023/05/02 12:29:48;;;;;;;1.50;1.35;;;11.70;78.40;;;;;;4893991;28;94217;-34
2023/05/02 12:32:25;;;;;;;4.28;1.65;;;11.60;78.40;;;;;;4895486;28;93821;-32
2023/05/02 12:34:51;;;;;;;3.78;1.75;;;11.60;82.60;;;;;;4896884;28;95632;-35
2023/05/02 12:37:22;;;;;;;3.25;1.63;;;11.50;83.40;;;;;;4895448;28;93138;-30
2023/05/02 12:39:48;;;;;;;3.90;1.75;;;11.70;88.20;;;;;;4895773;28;94491;-32
2023/05/02 12:42:16;;;;;;;4.78;2.35;;;11.60;82.20;;;;;;4895553;28;94443;-31
2023/05/02 12:44:43;;;;;;;1.75;1.52;;;11.60;93.20;;;;;;4896475;28;94174;-34
2023/05/02 12:47:13;;;;;;;3.38;1.90;;;11.70;96.40;;;;;;4894060;28;93237;-32
2023/05/02 12:49:56;;;;;;;3.08;1.67;;;11.60;82.70;;;;;;4895554;28;94573;-35
2023/05/02 12:52:49;;;;;;;6.75;1.65;;;11.60;83.20;;;;;;4883392;28;94026;-36
2023/05/02 12:55:20;;;;;;;2.17;1.60;;;11.50;84.60;;;;;;4895013;28;92737;-34